Terminal Aerodrome Forecast
Issued by NWS

Home | Current Version | Previous Version | Text Only | Print | Product List | Glossary On
Versions: 1 2 3 4 5 6 7 8 9 10 11 12 13 14 15 16 17 18 19 20 21 22
000
FTUS41 KGYX 272326
TAFPSM
TAF
KPSM 272326Z 2800/2824 13004KT P6SM FEW025 BKN200
     FM280300 24003KT 3SM BR OVC015
     FM280600 26003KT 1/4SM FG OVC002
     FM281230 28006KT P6SM SCT035
     FM281600 30005KT P6SM BKN040=

USA.gov is the U.S. government's official web portal to all federal, state and local government web resources and services.